createdAt,value
2023-01-29T00:01:56.096Z,3.03
2023-01-29T00:04:23.374Z,3.40
2023-01-29T00:06:50.322Z,3.17
2023-01-29T00:09:17.501Z,3.07
2023-01-29T00:11:44.426Z,3.07
2023-01-29T00:14:11.485Z,2.73
2023-01-29T00:16:39.791Z,2.97
2023-01-29T00:19:06.631Z,3.13
2023-01-29T00:21:33.665Z,2.87
2023-01-29T00:24:00.666Z,2.70
2023-01-29T00:26:27.998Z,3.17
2023-01-29T00:28:55.294Z,3.20
2023-01-29T00:31:24.545Z,3.20
2023-01-29T00:33:52.927Z,3.43
2023-01-29T00:36:21.387Z,3.50
2023-01-29T00:38:54.593Z,3.50
2023-01-29T00:41:40.698Z,3.97
2023-01-29T00:44:26.960Z,3.47
2023-01-29T00:46:54.694Z,3.40
2023-01-29T00:49:23.184Z,4.25
2023-01-29T00:52:10.019Z,3.30
2023-01-29T00:54:37.110Z,3.90
2023-01-29T00:57:04.467Z,3.13
2023-01-29T00:59:31.561Z,3.27
2023-01-29T01:02:17.307Z,3.70
2023-01-29T01:04:45.491Z,3.47
2023-01-29T01:07:15.124Z,3.53
2023-01-29T01:10:00.524Z,3.67
2023-01-29T01:12:28.534Z,3.63
2023-01-29T01:14:55.620Z,3.70
2023-01-29T01:17:22.721Z,3.33
2023-01-29T01:19:50.989Z,3.50
2023-01-29T01:22:17.978Z,3.27
2023-01-29T01:24:44.902Z,3.40
2023-01-29T01:27:12.098Z,3.60
2023-01-29T01:29:39.040Z,3.60
2023-01-29T01:32:06.415Z,3.03
2023-01-29T01:34:33.449Z,3.40
2023-01-29T01:37:01.684Z,3.20
2023-01-29T01:39:28.613Z,2.80
2023-01-29T01:41:55.689Z,3.23
2023-01-29T01:44:55.139Z,3.50
2023-01-29T01:47:26.668Z,3.43
2023-01-29T01:49:55.628Z,3.30
2023-01-29T01:52:24.189Z,3.97
2023-01-29T01:54:51.626Z,3.97
2023-01-29T01:57:25.131Z,3.30
2023-01-29T01:59:57.834Z,3.40
2023-01-29T02:02:44.027Z,3.10
2023-01-29T02:05:31.828Z,3.23
2023-01-29T02:08:18.905Z,3.00
2023-01-29T02:10:47.612Z,3.40
2023-01-29T02:13:17.312Z,3.07
2023-01-29T02:15:46.890Z,3.17
2023-01-29T02:18:14.675Z,3.23
2023-01-29T02:20:44.392Z,3.23
2023-01-29T02:23:42.886Z,3.30
2023-01-29T02:26:40.956Z,3.20
2023-01-29T02:29:26.904Z,3.43
2023-01-29T02:32:05.351Z,3.87
2023-01-29T02:34:59.556Z,3.90
2023-01-29T02:37:35.986Z,3.63
2023-01-29T02:40:11.033Z,3.30
2023-01-29T02:42:44.309Z,3.80
2023-01-29T02:45:16.461Z,3.40
2023-01-29T02:47:48.520Z,3.73
2023-01-29T02:50:19.722Z,3.70
2023-01-29T02:52:57.661Z,3.60
2023-01-29T02:55:30.614Z,3.53
2023-01-29T02:58:03.374Z,4.23
2023-01-29T03:00:38.135Z,4.07
2023-01-29T03:03:11.950Z,3.43
2023-01-29T03:05:45.733Z,4.00
2023-01-29T03:08:21.425Z,4.33
2023-01-29T03:10:52.857Z,3.53
2023-01-29T03:13:26.874Z,3.87
2023-01-29T03:16:02.360Z,3.10
2023-01-29T03:18:34.057Z,3.67
2023-01-29T03:21:26.489Z,3.40
2023-01-29T03:24:13.569Z,3.30
2023-01-29T03:27:00.960Z,3.20
2023-01-29T03:29:49.039Z,3.70
2023-01-29T03:32:19.807Z,3.83
2023-01-29T03:34:51.701Z,3.63
2023-01-29T03:37:26.019Z,3.83
2023-01-29T03:39:53.008Z,3.53
2023-01-29T03:42:29.670Z,4.00
2023-01-29T03:45:05.641Z,3.57
2023-01-29T03:47:43.519Z,3.47
2023-01-29T03:50:21.338Z,4.13
2023-01-29T03:52:51.853Z,4.37
2023-01-29T03:55:22.987Z,3.53
2023-01-29T03:57:56.152Z,3.47
2023-01-29T04:00:27.870Z,4.00
2023-01-29T04:03:06.815Z,3.70
2023-01-29T04:05:39.905Z,3.60
2023-01-29T04:08:12.878Z,3.50
2023-01-29T04:10:42.872Z,4.00
2023-01-29T04:13:11.992Z,4.07
2023-01-29T04:15:43.014Z,3.20
2023-01-29T04:18:11.241Z,3.20
2023-01-29T04:20:38.447Z,3.80
2023-01-29T04:23:06.600Z,3.80
2023-01-29T04:25:42.688Z,3.50
2023-01-29T04:28:16.493Z,3.60
2023-01-29T04:30:49.036Z,3.83
2023-01-29T04:33:29.204Z,3.83
2023-01-29T04:36:08.289Z,3.90
2023-01-29T04:38:47.264Z,3.80
2023-01-29T04:41:21.663Z,3.97
2023-01-29T04:43:58.638Z,3.90
2023-01-29T04:46:31.740Z,4.00
2023-01-29T04:49:10.203Z,3.70
2023-01-29T04:51:47.767Z,3.80
2023-01-29T04:54:22.555Z,3.70
2023-01-29T04:56:55.280Z,4.13
2023-01-29T04:59:29.057Z,3.90
2023-01-29T05:01:56.181Z,4.13
2023-01-29T05:04:25.953Z,4.57
2023-01-29T05:06:53.564Z,4.20
2023-01-29T05:09:20.969Z,4.10
2023-01-29T05:11:48.839Z,4.13
2023-01-29T05:14:18.472Z,4.03
2023-01-29T05:16:47.800Z,4.47
2023-01-29T05:19:16.214Z,4.53
2023-01-29T05:21:47.172Z,4.17
2023-01-29T05:24:16.482Z,4.30
2023-01-29T05:27:03.395Z,5.17
2023-01-29T05:29:30.329Z,5.07
2023-01-29T05:31:57.197Z,4.60
2023-01-29T05:34:24.261Z,5.23
2023-01-29T05:36:52.488Z,4.80
2023-01-29T05:39:19.601Z,5.40
2023-01-29T05:41:46.379Z,4.50
2023-01-29T05:44:13.690Z,4.57
2023-01-29T05:46:40.628Z,4.53
2023-01-29T05:49:07.499Z,4.60
2023-01-29T05:51:34.403Z,4.73
2023-01-29T05:54:02.682Z,4.60
2023-01-29T05:56:29.590Z,4.90
2023-01-29T05:58:56.641Z,4.73
2023-01-29T06:01:25.756Z,5.13
2023-01-29T06:03:52.650Z,4.90
2023-01-29T06:06:19.555Z,4.93
2023-01-29T06:08:46.472Z,5.07
2023-01-29T06:11:16.500Z,5.07
2023-01-29T06:13:43.589Z,5.10
2023-01-29T06:16:12.613Z,6.07
2023-01-29T06:18:40.331Z,5.87
2023-01-29T06:21:09.790Z,5.67
2023-01-29T06:23:37.016Z,6.57
2023-01-29T06:26:05.751Z,6.03
2023-01-29T06:28:33.955Z,6.67
2023-01-29T06:31:16.462Z,5.87
2023-01-29T06:33:49.281Z,6.53
2023-01-29T06:36:16.105Z,5.73
2023-01-29T06:38:42.913Z,5.77
2023-01-29T06:41:11.687Z,5.40
2023-01-29T06:43:40.202Z,5.63
2023-01-29T06:46:08.426Z,5.70
2023-01-29T06:48:35.514Z,5.23
2023-01-29T06:51:04.186Z,5.57
2023-01-29T06:53:31.254Z,4.77
2023-01-29T06:55:58.152Z,6.70
2023-01-29T06:58:25.020Z,5.93
2023-01-29T07:00:53.341Z,6.10
2023-01-29T07:03:20.318Z,5.97
2023-01-29T07:05:52.020Z,6.50
2023-01-29T07:08:19.044Z,6.47
2023-01-29T07:10:45.885Z,7.13
2023-01-29T07:13:12.699Z,6.27
2023-01-29T07:15:39.572Z,7.17
2023-01-29T07:18:12.549Z,7.37
2023-01-29T07:20:40.251Z,7.00
2023-01-29T07:23:08.909Z,7.13
2023-01-29T07:25:35.862Z,6.93
2023-01-29T07:28:02.765Z,6.73
2023-01-29T07:30:30.015Z,6.70
2023-01-29T07:33:01.921Z,6.17
2023-01-29T07:35:30.321Z,6.00
2023-01-29T07:37:57.175Z,6.53
2023-01-29T07:40:24.013Z,6.60
2023-01-29T07:42:50.876Z,6.30
2023-01-29T07:45:17.905Z,6.30
2023-01-29T07:47:44.767Z,6.83
2023-01-29T07:50:11.982Z,6.43
2023-01-29T07:52:40.216Z,6.77
2023-01-29T07:55:07.717Z,7.13
2023-01-29T07:57:34.636Z,6.90
2023-01-29T08:00:01.555Z,18.80
2023-01-29T08:02:28.466Z,20.53
2023-01-29T08:04:55.331Z,11.77
2023-01-29T08:07:22.135Z,8.17
2023-01-29T08:09:50.401Z,7.53
2023-01-29T08:12:17.229Z,7.80
2023-01-29T08:14:45.633Z,7.47
2023-01-29T08:17:12.835Z,8.30
2023-01-29T08:19:39.913Z,7.37
2023-01-29T08:22:07.015Z,8.50
2023-01-29T08:24:47.630Z,8.87
2023-01-29T08:27:22.348Z,9.50
2023-01-29T08:29:49.140Z,10.87
2023-01-29T08:32:16.348Z,9.40
2023-01-29T08:34:43.192Z,9.57
2023-01-29T08:37:09.983Z,9.07
2023-01-29T08:39:36.787Z,8.80
2023-01-29T08:42:03.871Z,8.70
2023-01-29T08:44:32.247Z,8.27
2023-01-29T08:46:59.136Z,8.53
2023-01-29T08:49:26.078Z,9.40
2023-01-29T08:51:54.712Z,8.40
2023-01-29T08:54:21.549Z,8.83
2023-01-29T08:56:48.470Z,8.93
2023-01-29T08:59:15.781Z,8.23
2023-01-29T09:01:43.965Z,8.10
2023-01-29T09:04:10.999Z,8.53
2023-01-29T09:06:37.818Z,8.60
2023-01-29T09:09:04.785Z,9.20
2023-01-29T09:11:31.630Z,9.30
2023-01-29T09:13:59.165Z,10.17
2023-01-29T09:16:26.202Z,8.73
2023-01-29T09:18:55.007Z,8.90
2023-01-29T09:21:21.911Z,8.17
2023-01-29T09:23:48.827Z,8.33
2023-01-29T09:26:15.689Z,8.87
2023-01-29T09:28:42.557Z,8.20
2023-01-29T09:31:09.549Z,8.73
2023-01-29T09:33:36.552Z,8.53
2023-01-29T09:36:08.139Z,9.27
2023-01-29T09:38:35.092Z,8.87
2023-01-29T09:41:16.297Z,8.43
2023-01-29T09:43:48.244Z,9.03
2023-01-29T09:46:19.759Z,9.43
2023-01-29T09:48:48.024Z,10.67
2023-01-29T09:51:26.315Z,9.37
2023-01-29T09:54:00.011Z,9.10
2023-01-29T09:56:29.046Z,9.77
2023-01-29T09:59:00.547Z,9.83
2023-01-29T10:01:35.795Z,9.13
2023-01-29T10:04:20.060Z,10.13
2023-01-29T10:07:00.913Z,9.10
2023-01-29T10:09:46.380Z,9.23
2023-01-29T10:12:33.618Z,10.00
2023-01-29T10:15:06.471Z,9.83
2023-01-29T10:17:50.450Z,9.33
2023-01-29T10:20:57.908Z,10.40
2023-01-29T10:23:28.506Z,11.37
2023-01-29T10:25:55.763Z,10.17
2023-01-29T10:28:28.155Z,9.80
2023-01-29T10:30:59.815Z,9.50
2023-01-29T10:33:49.399Z,9.33
2023-01-29T10:36:32.222Z,8.70
2023-01-29T10:39:00.648Z,10.07
2023-01-29T10:41:42.580Z,9.63
2023-01-29T10:44:22.959Z,9.40
2023-01-29T10:47:07.737Z,9.30
2023-01-29T10:49:53.896Z,9.70
2023-01-29T10:52:35.257Z,8.80
2023-01-29T10:55:17.069Z,9.33
2023-01-29T10:57:58.103Z,9.27
2023-01-29T11:00:27.330Z,9.57
2023-01-29T11:02:54.311Z,9.47
2023-01-29T11:05:27.420Z,9.67
2023-01-29T11:08:03.599Z,9.93
2023-01-29T11:10:35.750Z,9.83
2023-01-29T11:13:03.440Z,9.03
2023-01-29T11:15:33.851Z,9.13
2023-01-29T11:18:14.146Z,8.77
2023-01-29T11:20:42.602Z,9.43
2023-01-29T11:23:27.660Z,9.40
2023-01-29T11:25:57.723Z,8.43
2023-01-29T11:28:41.350Z,8.47
2023-01-29T11:31:20.777Z,9.13
2023-01-29T11:33:48.666Z,10.80
2023-01-29T11:36:35.088Z,8.53
2023-01-29T11:39:24.163Z,8.73
2023-01-29T11:41:57.183Z,7.37
2023-01-29T11:44:36.457Z,8.33
2023-01-29T11:47:13.243Z,8.73
2023-01-29T11:49:45.067Z,6.80
2023-01-29T11:52:13.390Z,6.97
2023-01-29T11:54:46.564Z,7.17
2023-01-29T11:57:25.956Z,7.53
2023-01-29T11:59:54.780Z,6.73
2023-01-29T12:02:26.965Z,6.87
2023-01-29T12:04:56.419Z,6.10
2023-01-29T12:07:23.654Z,6.43
2023-01-29T12:09:55.308Z,6.50
2023-01-29T12:12:37.412Z,6.13
2023-01-29T12:15:25.087Z,6.10
2023-01-29T12:17:59.388Z,6.60
2023-01-29T12:20:34.321Z,6.27
2023-01-29T12:23:14.421Z,5.67
2023-01-29T12:25:50.343Z,5.67
2023-01-29T12:28:50.691Z,6.40
2023-01-29T12:31:28.721Z,7.00
2023-01-29T12:34:02.011Z,6.50
2023-01-29T12:36:34.334Z,6.40
2023-01-29T12:39:01.362Z,6.97
2023-01-29T12:41:37.328Z,6.40
2023-01-29T12:44:13.542Z,7.00
2023-01-29T12:46:44.072Z,7.33
2023-01-29T12:49:16.684Z,7.00
2023-01-29T12:51:51.267Z,7.03
2023-01-29T12:54:22.192Z,6.80
2023-01-29T12:56:53.211Z,7.23
2023-01-29T12:59:29.357Z,7.30
2023-01-29T13:02:00.002Z,7.00
2023-01-29T13:04:36.750Z,8.00
2023-01-29T13:07:12.785Z,7.73
2023-01-29T13:09:45.416Z,7.57
2023-01-29T13:12:15.197Z,8.53
2023-01-29T13:14:47.935Z,6.73
2023-01-29T13:17:19.814Z,6.97
2023-01-29T13:19:51.149Z,7.77
2023-01-29T13:22:22.536Z,7.23
2023-01-29T13:25:02.320Z,7.87
2023-01-29T13:27:33.406Z,8.20
2023-01-29T13:30:02.149Z,7.57
2023-01-29T13:32:31.312Z,7.60
2023-01-29T13:35:00.118Z,6.83
2023-01-29T13:37:31.521Z,7.00
2023-01-29T13:40:00.805Z,7.43
2023-01-29T13:42:39.912Z,7.27
2023-01-29T13:45:18.452Z,7.70
2023-01-29T13:47:45.633Z,7.03
2023-01-29T13:50:19.587Z,6.40
2023-01-29T13:52:55.258Z,7.57
2023-01-29T13:55:31.369Z,7.53
2023-01-29T13:58:00.431Z,6.93
2023-01-29T14:00:49.708Z,7.37
2023-01-29T14:04:03.367Z,6.77
2023-01-29T14:06:49.304Z,6.90
2023-01-29T14:09:50.014Z,6.87
2023-01-29T14:12:52.633Z,6.67
2023-01-29T14:15:25.991Z,6.37
2023-01-29T14:18:20.097Z,6.43
2023-01-29T14:21:00.452Z,7.00
2023-01-29T14:23:36.179Z,7.00
2023-01-29T14:26:05.324Z,7.65
2023-01-29T14:28:35.008Z,7.70
2023-01-29T14:31:03.689Z,6.70
2023-01-29T14:33:38.102Z,7.00
2023-01-29T14:36:07.898Z,6.83
2023-01-29T14:38:35.263Z,6.80
2023-01-29T14:41:18.840Z,6.80
2023-01-29T14:43:45.777Z,7.00
2023-01-29T14:46:42.075Z,6.77
2023-01-29T14:49:10.548Z,6.10
2023-01-29T14:51:41.794Z,6.23
2023-01-29T14:54:22.617Z,6.63
2023-01-29T14:56:57.401Z,6.40
2023-01-29T14:59:30.359Z,6.00
2023-01-29T15:02:00.740Z,6.10
2023-01-29T15:04:33.599Z,6.30
2023-01-29T15:07:06.835Z,6.47
2023-01-29T15:09:42.394Z,6.60
2023-01-29T15:12:23.674Z,6.70
2023-01-29T15:14:59.595Z,6.70
2023-01-29T15:17:30.709Z,7.00
2023-01-29T15:19:59.136Z,6.30
2023-01-29T15:22:26.207Z,6.50
2023-01-29T15:25:07.318Z,8.00
2023-01-29T15:27:34.692Z,6.40
2023-01-29T15:30:04.205Z,6.60
2023-01-29T15:32:33.994Z,7.27
2023-01-29T15:35:10.621Z,7.43
2023-01-29T15:37:37.919Z,6.90
2023-01-29T15:40:19.795Z,6.77
2023-01-29T15:42:48.490Z,6.67
2023-01-29T15:45:33.650Z,7.23
2023-01-29T15:48:05.680Z,6.90
2023-01-29T15:50:39.288Z,5.80
2023-01-29T15:53:12.959Z,6.67
2023-01-29T15:55:40.228Z,6.30
2023-01-29T15:58:13.510Z,6.03
2023-01-29T16:00:40.875Z,7.30
2023-01-29T16:03:15.539Z,6.80
2023-01-29T16:05:44.125Z,6.60
2023-01-29T16:08:12.918Z,6.20
2023-01-29T16:10:42.230Z,6.33
2023-01-29T16:13:15.931Z,6.17
2023-01-29T16:15:54.915Z,6.67
2023-01-29T16:18:25.091Z,7.37
2023-01-29T16:20:55.768Z,6.10
2023-01-29T16:23:27.457Z,7.50
2023-01-29T16:25:56.633Z,6.33
2023-01-29T16:28:23.582Z,6.00
2023-01-29T16:30:56.883Z,6.63
2023-01-29T16:33:31.722Z,6.27
2023-01-29T16:36:00.033Z,6.47
2023-01-29T16:38:30.711Z,5.97
2023-01-29T16:41:16.362Z,6.87
2023-01-29T16:43:51.647Z,6.43
2023-01-29T16:46:34.527Z,6.37
2023-01-29T16:49:01.822Z,6.60
2023-01-29T16:51:31.357Z,6.77
2023-01-29T16:54:01.004Z,6.33
2023-01-29T16:56:32.405Z,7.13
2023-01-29T16:59:00.235Z,6.53
2023-01-29T17:01:30.042Z,7.07
2023-01-29T17:04:03.110Z,7.10
2023-01-29T17:06:32.348Z,7.50
2023-01-29T17:08:59.741Z,7.70
2023-01-29T17:11:33.206Z,8.43
2023-01-29T17:14:00.760Z,7.50
2023-01-29T17:16:31.225Z,8.37
2023-01-29T17:18:58.550Z,8.03
2023-01-29T17:21:25.776Z,8.47
2023-01-29T17:23:54.064Z,9.13
2023-01-29T17:26:21.981Z,11.00
2023-01-29T17:28:51.426Z,9.37
2023-01-29T17:31:18.641Z,9.57
2023-01-29T17:33:46.061Z,9.17
2023-01-29T17:36:16.080Z,9.40
2023-01-29T17:38:43.349Z,8.90
2023-01-29T17:41:18.614Z,8.53
2023-01-29T17:43:45.753Z,9.10
2023-01-29T17:46:16.196Z,9.33
2023-01-29T17:48:43.588Z,9.73
2023-01-29T17:51:13.547Z,9.87
2023-01-29T17:53:46.075Z,8.83
2023-01-29T17:56:23.380Z,8.97
2023-01-29T17:58:50.222Z,9.10
2023-01-29T18:01:17.242Z,9.60
2023-01-29T18:03:44.124Z,11.23
2023-01-29T18:06:15.960Z,10.70
2023-01-29T18:08:42.827Z,11.80
2023-01-29T18:11:11.323Z,12.10
2023-01-29T18:13:41.898Z,11.37
2023-01-29T18:16:09.359Z,9.63
2023-01-29T18:18:36.383Z,11.73
2023-01-29T18:21:03.621Z,10.50
2023-01-29T18:23:31.288Z,9.20
2023-01-29T18:25:58.375Z,9.63
2023-01-29T18:28:25.850Z,9.90
2023-01-29T18:30:54.238Z,12.37
2023-01-29T18:33:22.598Z,10.13
2023-01-29T18:35:49.873Z,9.40
2023-01-29T18:38:16.985Z,13.07
2023-01-29T18:40:43.832Z,13.13
2023-01-29T18:43:10.676Z,12.67
2023-01-29T18:45:37.819Z,11.73
2023-01-29T18:48:06.419Z,11.57
2023-01-29T18:50:33.393Z,10.37
2023-01-29T18:53:00.283Z,10.17
2023-01-29T18:55:27.486Z,11.43
2023-01-29T18:58:29.322Z,11.50
2023-01-29T19:00:41.356Z,10.63
2023-01-29T19:03:10.688Z,10.57
2023-01-29T19:05:40.776Z,10.53
2023-01-29T19:08:07.943Z,12.57
2023-01-29T19:10:35.124Z,12.27
2023-01-29T19:13:02.163Z,12.83
2023-01-29T19:15:29.258Z,12.83
2023-01-29T19:17:56.732Z,12.53
2023-01-29T19:20:25.029Z,13.07
2023-01-29T19:22:51.915Z,11.70
2023-01-29T19:25:19.504Z,10.90
2023-01-29T19:27:46.911Z,11.20
2023-01-29T19:30:14.290Z,11.03
2023-01-29T19:32:41.772Z,11.23
2023-01-29T19:35:08.856Z,11.67
2023-01-29T19:37:37.076Z,11.33
2023-01-29T19:40:04.635Z,11.70
2023-01-29T19:42:31.689Z,11.97
2023-01-29T19:44:58.665Z,13.13
2023-01-29T19:47:25.635Z,11.67
2023-01-29T19:49:52.583Z,12.60
2023-01-29T19:52:51.405Z,12.03
2023-01-29T19:55:21.003Z,12.43
2023-01-29T19:57:48.378Z,12.70
2023-01-29T20:00:17.472Z,12.37
2023-01-29T20:02:44.472Z,13.03
2023-01-29T20:05:12.968Z,12.23
2023-01-29T20:07:42.254Z,11.67
2023-01-29T20:10:16.810Z,11.53
2023-01-29T20:12:45.855Z,11.63
2023-01-29T20:15:13.493Z,12.53
2023-01-29T20:17:40.515Z,15.52
2023-01-29T20:20:08.614Z,13.10
2023-01-29T20:22:35.850Z,13.00
2023-01-29T20:25:02.827Z,12.90
2023-01-29T20:27:29.696Z,12.57
2023-01-29T20:29:58.107Z,14.13
2023-01-29T20:32:24.984Z,14.40
2023-01-29T20:34:52.470Z,15.77
2023-01-29T20:37:19.786Z,14.20
2023-01-29T20:39:46.846Z,15.90
2023-01-29T20:42:13.826Z,15.53
2023-01-29T20:44:40.920Z,17.17
2023-01-29T20:47:09.206Z,15.30
2023-01-29T20:49:36.213Z,15.73
2023-01-29T20:52:03.176Z,15.67
2023-01-29T20:54:33.027Z,16.30
2023-01-29T20:57:00.164Z,16.17
2023-01-29T20:59:29.055Z,16.70
2023-01-29T21:01:56.074Z,17.27
2023-01-29T21:04:24.541Z,16.87
2023-01-29T21:06:51.633Z,16.63
2023-01-29T21:09:18.568Z,16.13
2023-01-29T21:11:45.533Z,15.70
2023-01-29T21:14:12.513Z,15.03
2023-01-29T21:16:39.498Z,14.53
2023-01-29T21:19:06.428Z,14.47
2023-01-29T21:21:34.978Z,13.50
2023-01-29T21:24:02.074Z,13.40
2023-01-29T21:26:29.181Z,13.17
2023-01-29T21:28:56.141Z,14.03
2023-01-29T21:31:23.130Z,12.00
2023-01-29T21:33:50.066Z,13.20
2023-01-29T21:36:16.904Z,14.40
2023-01-29T21:38:46.234Z,13.63
2023-01-29T21:41:13.477Z,13.20
2023-01-29T21:43:40.665Z,13.73
2023-01-29T21:46:17.211Z,13.33
2023-01-29T21:48:44.158Z,14.30
2023-01-29T21:51:11.129Z,14.70
2023-01-29T21:53:38.070Z,14.00
2023-01-29T21:56:06.819Z,14.10
2023-01-29T21:58:33.764Z,13.63
2023-01-29T22:01:35.779Z,13.23
2023-01-29T22:03:47.818Z,14.17
2023-01-29T22:06:14.837Z,14.80
2023-01-29T22:08:41.675Z,14.87
2023-01-29T22:11:10.519Z,15.30
2023-01-29T22:13:37.750Z,14.63
2023-01-29T22:16:06.059Z,14.53
2023-01-29T22:18:33.355Z,15.03
2023-01-29T22:21:02.563Z,16.47
2023-01-29T22:23:29.874Z,14.40
2023-01-29T22:26:02.680Z,14.37
2023-01-29T22:28:30.962Z,15.73
2023-01-29T22:31:01.422Z,14.67
2023-01-29T22:33:28.373Z,15.53
2023-01-29T22:35:56.029Z,15.70
2023-01-29T22:38:23.828Z,14.67
2023-01-29T22:40:51.144Z,14.60
2023-01-29T22:43:18.073Z,15.10
2023-01-29T22:45:46.718Z,14.73
2023-01-29T22:48:13.876Z,15.43
2023-01-29T22:50:41.727Z,15.30
2023-01-29T22:53:09.178Z,14.57
2023-01-29T22:55:36.045Z,15.60
2023-01-29T22:58:02.864Z,14.33
2023-01-29T23:00:29.686Z,15.37
2023-01-29T23:02:57.872Z,14.37
2023-01-29T23:05:24.732Z,14.87
2023-01-29T23:07:51.563Z,15.07
2023-01-29T23:10:18.817Z,16.30
2023-01-29T23:12:45.858Z,13.53
2023-01-29T23:15:12.733Z,15.30
2023-01-29T23:17:39.745Z,13.90
2023-01-29T23:20:09.743Z,15.30
2023-01-29T23:22:36.613Z,15.33
2023-01-29T23:25:03.715Z,15.93
2023-01-29T23:27:30.595Z,14.17
2023-01-29T23:29:57.500Z,14.20
2023-01-29T23:32:24.341Z,14.90
2023-01-29T23:34:51.232Z,14.97
2023-01-29T23:37:19.458Z,14.47
2023-01-29T23:39:46.276Z,13.70
2023-01-29T23:42:13.270Z,14.50
2023-01-29T23:44:40.335Z,14.43
2023-01-29T23:47:07.226Z,14.77
2023-01-29T23:49:34.244Z,13.57
2023-01-29T23:52:01.153Z,12.67
2023-01-29T23:54:29.327Z,13.73
2023-01-29T23:56:56.095Z,14.53
2023-01-29T23:59:23.027Z,15.17
